Time;durP1;ratioP1;P1;durP2;ratioP2;P2;SDS_P1;SDS_P2;PMS_P1;PMS_P2;Temp;Humidity;BMP_temperature;BMP_pressure;BME280_temperature;BME280_humidity;BME280_pressure;Samples;Min_cycle;Max_cycle;Signal;HPM_P1;HPM_P2
2022/09/27 00:01:55;;;;;;;1.42;1.20;;;;;;;10.21;100.00;96784.38;4155358;28;20205;-51
2022/09/27 00:03:59;;;;;;;1.23;1.10;;;;;;;10.05;100.00;96786.44;4153684;28;20260;-49
2022/09/27 00:06:06;;;;;;;1.52;1.10;;;;;;;10.05;100.00;96780.97;4151665;28;20562;-49
2022/09/27 00:08:08;;;;;;;1.38;1.27;;;;;;;10.00;100.00;96782.91;4157230;28;20194;-49
2022/09/27 00:10:10;;;;;;;1.10;1.00;;;;;;;10.06;100.00;96785.34;4153888;28;20239;-49
2022/09/27 00:12:11;;;;;;;1.13;1.13;;;;;;;10.11;100.00;96789.94;4171305;28;20215;-49
2022/09/27 00:14:14;;;;;;;0.90;0.90;;;;;;;10.01;100.00;96784.56;4154158;28;21982;-50
2022/09/27 00:16:16;;;;;;;1.08;1.00;;;;;;;10.05;100.00;96796.53;4141917;28;20218;-49
2022/09/27 00:18:18;;;;;;;1.30;1.20;;;;;;;10.06;100.00;96789.97;4151000;28;20320;-49
2022/09/27 00:20:20;;;;;;;1.40;1.30;;;;;;;10.08;100.00;96790.53;4149977;28;20233;-49
2022/09/27 00:22:23;;;;;;;1.30;1.20;;;;;;;10.09;100.00;96792.16;4151504;28;20964;-51
2022/09/27 00:24:24;;;;;;;1.20;1.15;;;;;;;10.00;100.00;96793.81;4154176;28;20224;-49
2022/09/27 00:26:27;;;;;;;2.97;1.30;;;;;;;9.99;100.00;96781.28;4154276;28;20291;-50
2022/09/27 00:28:29;;;;;;;2.60;1.08;;;;;;;10.10;100.00;96783.66;4157094;28;20201;-50
2022/09/27 00:30:31;;;;;;;2.05;1.42;;;;;;;10.02;100.00;96784.25;4155161;28;20243;-50
2022/09/27 00:32:33;;;;;;;3.28;1.10;;;;;;;10.02;100.00;96784.25;4160351;28;20215;-50
2022/09/27 00:34:34;;;;;;;3.13;1.38;;;;;;;10.05;100.00;96786.44;4159004;28;20213;-49
2022/09/27 00:36:36;;;;;;;1.73;1.20;;;;;;;10.11;100.00;96789.94;4156954;28;20256;-49
2022/09/27 00:38:39;;;;;;;3.53;1.25;;;;;;;10.08;100.00;96779.59;4153488;28;20303;-50
2022/09/27 00:40:42;;;;;;;2.08;1.00;;;;;;;10.08;100.00;96790.53;4158470;28;20224;-50
2022/09/27 00:42:43;;;;;;;3.05;1.42;;;;;;;9.93;100.00;96787.88;4160036;28;20216;-50
2022/09/27 00:44:58;;;;;;;1.73;1.30;;;;;;;10.07;100.00;96789.69;4152513;28;20754;-48
2022/09/27 00:47:06;;;;;;;1.40;1.30;;;;;;;9.92;100.00;96797.19;4151707;28;20245;-49
2022/09/27 00:49:18;;;;;;;1.15;1.05;;;;;;;10.01;100.00;96792.75;4150944;28;20211;-49
2022/09/27 00:51:19;;;;;;;1.92;1.17;;;;;;;9.98;100.00;96785.13;4157235;28;20262;-49
2022/09/27 00:53:27;;;;;;;4.50;1.85;;;;;;;9.91;100.00;96790.94;4159413;28;20215;-50
2022/09/27 00:55:32;;;;;;;4.25;1.33;;;;;;;9.97;100.00;96787.03;4154939;28;21558;-51
2022/09/27 00:57:34;;;;;;;1.50;1.40;;;;;;;9.84;100.00;96789.63;4145022;28;20692;-51
2022/09/27 00:59:41;;;;;;;2.50;1.65;;;;;;;9.85;100.00;96786.63;4154131;28;20307;-49
2022/09/27 01:01:43;;;;;;;2.38;1.30;;;;;;;9.94;100.00;96786.81;4154223;28;20219;-51
2022/09/27 01:03:52;;;;;;;2.70;1.52;;;;;;;9.86;100.00;96787.41;4152150;28;20216;-50
2022/09/27 01:05:54;;;;;;;5.85;1.92;;;;;;;9.95;100.00;96791.97;4157672;28;20196;-49
2022/09/27 01:07:59;;;;;;;6.55;1.65;;;;;;;10.00;100.00;96799.28;4157501;28;20565;-50
2022/09/27 01:10:01;;;;;;;2.75;1.58;;;;;;;9.93;100.00;96793.34;4156945;28;20654;-49
2022/09/27 01:12:23;;;;;;;2.13;1.38;;;;;;;10.04;100.00;96792.19;4138312;28;20642;-49
2022/09/27 01:14:55;;;;;;;4.30;1.33;;;;;;;9.98;100.00;96791.41;4156926;28;20215;-49
2022/09/27 01:17:42;;;;;;;1.85;1.42;;;;;;;9.92;100.00;96786.25;4148015;28;20308;-50
2022/09/27 01:19:50;;;;;;;4.63;2.63;;;;;;;10.01;100.00;96781.81;4133784;28;20204;-49
2022/09/27 01:22:00;;;;;;;2.90;1.88;;;;;;;9.89;100.00;96784.13;4158991;28;20622;-50
2022/09/27 01:24:21;;;;;;;3.05;2.10;;;;;;;9.88;100.00;96791.50;4156497;28;21005;-49
2022/09/27 01:26:36;;;;;;;7.28;2.10;;;;;;;9.90;100.00;96791.22;4139263;28;20239;-50
2022/09/27 01:28:50;;;;;;;3.55;2.08;;;;;;;9.94;100.00;96789.53;4135369;28;20224;-50
2022/09/27 01:31:24;;;;;;;2.08;1.58;;;;;;;9.93;100.00;96793.34;4165111;28;20231;-49
2022/09/27 01:33:38;;;;;;;3.13;2.10;;;;;;;9.96;100.00;96793.59;4127356;28;20207;-49
2022/09/27 01:35:58;;;;;;;1.88;1.45;;;;;;;9.96;100.00;96793.59;4155561;28;20319;-49
2022/09/27 01:38:28;;;;;;;2.95;1.75;;;;;;;9.95;100.00;96788.44;4149520;28;20217;-49
2022/09/27 01:40:56;;;;;;;3.05;2.40;;;;;;;9.97;100.00;96788.94;4156228;28;20779;-50
2022/09/27 01:43:07;;;;;;;3.45;2.15;;;;;;;9.88;100.00;96796.16;4152679;28;20236;-49
2022/09/27 01:45:13;;;;;;;4.75;2.78;;;;;;;9.90;100.00;96793.94;4153908;28;20262;-49
2022/09/27 01:47:23;;;;;;;6.10;2.03;;;;;;;9.92;100.00;96797.19;4152140;28;20205;-49
2022/09/27 01:49:40;;;;;;;4.07;2.47;;;;;;;9.90;100.00;96797.50;4155603;28;20225;-50
2022/09/27 01:51:51;;;;;;;5.45;2.30;;;;;;;9.88;100.00;96796.16;4164796;28;20310;-49
2022/09/27 01:53:56;;;;;;;3.63;2.25;;;;;;;9.88;100.00;96798.88;4153127;28;20216;-49
2022/09/27 01:56:01;;;;;;;3.10;1.92;;;;;;;9.90;100.00;96799.41;4149838;28;20292;-49
2022/09/27 01:58:33;;;;;;;5.45;2.05;;;;;;;9.84;100.00;96800.56;4152155;28;20217;-50
2022/09/27 02:00:35;;;;;;;2.22;2.05;;;;;;;9.91;100.00;96795.56;4130891;28;20266;-49
2022/09/27 02:02:47;;;;;;;2.78;1.90;;;;;;;9.76;100.00;96809.38;4152673;28;20742;-49
2022/09/27 02:04:50;;;;;;;4.53;2.20;;;;;;;9.87;100.00;96810.91;4157732;28;20208;-49
2022/09/27 02:06:58;;;;;;;3.38;2.25;;;;;;;9.86;100.00;96809.25;4155929;28;20213;-50
2022/09/27 02:09:07;;;;;;;2.72;2.30;;;;;;;9.84;100.00;96806.00;4159974;28;20246;-50
2022/09/27 02:11:11;;;;;;;2.50;2.22;;;;;;;9.83;100.00;96810.66;4169332;28;20229;-49
2022/09/27 02:13:19;;;;;;;4.18;2.80;;;;;;;9.83;100.00;96812.59;4157968;28;20212;-49
2022/09/27 02:15:21;;;;;;;2.38;1.92;;;;;;;9.83;100.00;96812.59;4157356;28;20218;-49
2022/09/27 02:17:43;;;;;;;3.08;2.47;;;;;;;9.88;100.00;96813.34;4160714;28;20200;-51
2022/09/27 02:20:11;;;;;;;3.72;2.50;;;;;;;9.85;100.00;96824.84;4155082;28;20232;-51
2022/09/27 02:22:23;;;;;;;1.70;1.50;;;;;;;9.96;100.00;96820.13;4160463;28;20220;-51
2022/09/27 02:24:34;;;;;;;4.03;2.03;;;;;;;9.79;100.00;96816.97;4153283;28;20208;-49
2022/09/27 02:26:40;;;;;;;2.80;1.98;;;;;;;9.81;100.00;96820.25;4152675;28;20238;-49
2022/09/27 02:28:47;;;;;;;1.98;1.88;;;;;;;9.87;100.00;96827.31;4164648;28;21851;-50
2022/09/27 02:30:49;;;;;;;5.00;3.38;;;;;;;9.92;100.00;96835.44;4158114;28;20231;-50
2022/09/27 02:32:51;;;;;;;4.70;3.20;;;;;;;9.94;100.00;96828.59;4137973;28;20324;-49
2022/09/27 02:34:54;;;;;;;3.60;2.30;;;;;;;10.00;100.00;96843.00;4167262;28;20291;-50
2022/09/27 02:36:56;;;;;;;2.40;1.60;;;;;;;9.89;100.00;96836.03;4154943;28;20412;-49
2022/09/27 02:38:59;;;;;;;3.03;1.80;;;;;;;9.93;100.00;96831.59;4150983;28;20320;-49
2022/09/27 02:41:00;;;;;;;3.45;1.75;;;;;;;9.92;100.00;96835.44;4149986;28;20224;-48
2022/09/27 02:43:04;;;;;;;3.67;2.13;;;;;;;9.93;100.00;96831.59;4150988;28;20205;-50
2022/09/27 02:45:06;;;;;;;4.18;1.52;;;;;;;9.95;100.00;96834.88;4154546;28;22473;-49
2022/09/27 02:47:17;;;;;;;2.95;1.30;;;;;;;9.87;100.00;96832.78;4135414;28;20232;-50
2022/09/27 02:49:27;;;;;;;1.45;1.30;;;;;;;9.82;100.00;96839.06;4150865;28;20244;-49
2022/09/27 02:51:40;;;;;;;4.50;1.42;;;;;;;9.82;100.00;96846.47;4155994;28;20201;-51
2022/09/27 02:54:30;;;;;;;5.95;1.38;;;;;;;9.71;100.00;96845.72;4159915;28;20232;-50
2022/09/27 02:57:01;;;;;;;2.53;1.55;;;;;;;9.72;100.00;96849.25;4153516;28;20271;-50
2022/09/27 02:59:09;;;;;;;2.22;1.48;;;;;;;9.72;100.00;96857.47;4149305;28;20822;-49
2022/09/27 03:01:45;;;;;;;3.20;1.60;;;;;;;9.83;100.00;96859.03;4156753;28;20232;-50
2022/09/27 03:03:55;;;;;;;1.90;1.35;;;;;;;9.72;100.00;96862.91;4154194;28;20303;-51
2022/09/27 03:06:18;;;;;;;1.98;1.50;;;;;;;9.63;100.00;96859.19;4151274;28;20729;-50
2022/09/27 03:08:20;;;;;;;2.65;1.40;;;;;;;9.62;100.00;96860.28;4148855;28;20212;-50
2022/09/27 03:10:25;;;;;;;2.90;1.42;;;;;;;9.73;100.00;96868.09;4150199;28;20224;-49
2022/09/27 03:12:26;;;;;;;3.30;1.15;;;;;;;9.69;100.00;96869.75;4162426;28;20785;-49
2022/09/27 03:14:28;;;;;;;5.57;1.73;;;;;;;9.66;100.00;96869.53;4150494;28;20220;-51
2022/09/27 03:16:30;;;;;;;2.72;1.58;;;;;;;9.76;100.00;96880.38;4153537;28;20287;-50
2022/09/27 03:18:32;;;;;;;1.75;1.40;;;;;;;9.74;100.00;96874.41;4163979;28;20311;-50
2022/09/27 03:20:34;;;;;;;2.17;1.30;;;;;;;9.79;100.00;96874.34;4148505;28;20919;-50
2022/09/27 03:22:37;;;;;;;2.03;1.30;;;;;;;9.79;100.00;96879.78;4154134;28;20295;-49
2022/09/27 03:24:38;;;;;;;8.13;1.52;;;;;;;9.77;100.00;96882.84;4165549;28;20208;-51
2022/09/27 03:26:40;;;;;;;1.42;1.30;;;;;;;9.76;100.00;96885.84;4146835;28;20212;-49
2022/09/27 03:28:42;;;;;;;2.92;1.60;;;;;;;9.70;100.00;96886.97;4164078;28;20204;-50
2022/09/27 03:30:44;;;;;;;1.50;1.40;;;;;;;9.65;100.00;96884.28;4152863;28;20855;-49
2022/09/27 03:32:46;;;;;;;1.95;1.40;;;;;;;9.73;100.00;96891.84;4165681;28;20212;-51
2022/09/27 03:34:48;;;;;;;3.92;1.40;;;;;;;9.77;100.00;96899.22;4150274;28;20219;-50
2022/09/27 03:36:50;;;;;;;1.50;1.00;;;;;;;9.77;100.00;96898.41;4164994;28;20204;-51
2022/09/27 03:38:52;;;;;;;1.50;1.40;;;;;;;9.79;100.00;96902.47;4152794;28;20316;-50
2022/09/27 03:40:54;;;;;;;2.75;1.20;;;;;;;9.69;100.00;96901.75;4162765;28;20676;-50
2022/09/27 03:42:56;;;;;;;1.95;1.02;;;;;;;9.76;100.00;96896.75;4156710;28;20204;-51
2022/09/27 03:44:57;;;;;;;1.92;0.93;;;;;;;9.59;100.00;96905.34;4151099;28;20208;-51
2022/09/27 03:46:59;;;;;;;5.65;1.23;;;;;;;9.46;100.00;96903.25;4151403;28;20219;-50
2022/09/27 03:49:01;;;;;;;1.20;1.10;;;;;;;9.58;100.00;96894.69;4144952;28;20206;-51
2022/09/27 03:51:03;;;;;;;3.03;1.30;;;;;;;9.66;100.00;96899.56;4153033;28;20223;-50
2022/09/27 03:53:05;;;;;;;2.25;1.40;;;;;;;9.55;100.00;96901.53;4143312;28;20315;-51
2022/09/27 03:55:07;;;;;;;2.42;1.27;;;;;;;9.63;100.00;96902.88;4144469;28;20208;-49
2022/09/27 03:57:08;;;;;;;1.30;1.20;;;;;;;9.63;100.00;96902.88;4162476;28;20210;-49
2022/09/27 03:59:10;;;;;;;1.05;1.00;;;;;;;9.58;100.00;96908.34;4149460;28;20225;-49
2022/09/27 04:01:12;;;;;;;4.22;1.48;;;;;;;9.57;100.00;96909.47;4153422;28;20255;-49
2022/09/27 04:03:14;;;;;;;1.00;1.00;;;;;;;9.56;100.00;96916.03;4150502;28;20606;-49
2022/09/27 04:05:16;;;;;;;1.27;1.00;;;;;;;9.45;100.00;96911.72;4165318;28;20291;-49
2022/09/27 04:07:17;;;;;;;3.63;1.20;;;;;;;9.42;100.00;96917.75;4151787;28;21252;-49
2022/09/27 04:09:19;;;;;;;1.80;0.90;;;;;;;9.42;100.00;96923.22;4137964;28;20202;-49
2022/09/27 04:11:22;;;;;;;1.85;0.98;;;;;;;9.38;100.00;96927.59;4146024;28;20238;-50
2022/09/27 04:13:24;;;;;;;1.83;1.13;;;;;;;9.36;100.00;96922.41;4148167;28;20586;-49
2022/09/27 04:15:25;;;;;;;1.55;1.45;;;;;;;9.39;100.00;96923.75;4153610;28;20204;-50
2022/09/27 04:17:27;;;;;;;1.00;1.00;;;;;;;9.45;100.00;96922.63;4153754;28;20742;-50
2022/09/27 04:19:29;;;;;;;1.25;1.10;;;;;;;9.41;100.00;96927.03;4164408;28;20274;-51
2022/09/27 04:21:31;;;;;;;1.85;1.30;;;;;;;9.38;100.00;96927.59;4147633;28;20209;-50
2022/09/27 04:23:32;;;;;;;1.33;1.10;;;;;;;9.49;100.00;96926.44;4152445;28;20216;-50
2022/09/27 04:25:34;;;;;;;2.85;1.33;;;;;;;9.45;100.00;96933.53;4157062;28;20236;-51
2022/09/27 04:27:36;;;;;;;3.40;1.05;;;;;;;9.46;100.00;96924.25;4166354;28;20214;-50
2022/09/27 04:29:41;;;;;;;1.42;1.33;;;;;;;9.43;100.00;96924.84;4146458;28;20194;-50
2022/09/27 04:31:43;;;;;;;2.00;1.10;;;;;;;9.45;100.00;96917.16;4151534;28;20212;-50
2022/09/27 04:33:48;;;;;;;1.45;1.02;;;;;;;9.49;100.00;96923.72;4151950;28;20205;-51
2022/09/27 04:38:10;;;;;;;1.23;1.08;;;;;;;9.51;100.00;96929.69;4150505;28;20239;-50
2022/09/27 04:40:12;;;;;;;1.60;1.02;;;;;;;9.50;100.00;96936.25;4149401;28;20243;-50
2022/09/27 04:42:14;;;;;;;2.17;1.00;;;;;;;9.44;100.00;96938.22;4166166;28;21005;-49
2022/09/27 04:44:16;;;;;;;1.80;0.90;;;;;;;9.32;100.00;96940.44;4156181;28;20295;-50
2022/09/27 04:46:19;;;;;;;0.80;0.80;;;;;;;9.38;100.00;96943.97;4150508;28;20256;-51
2022/09/27 04:48:24;;;;;;;2.85;1.60;;;;;;;9.36;100.00;96938.78;4156458;28;20215;-49
2022/09/27 04:50:26;;;;;;;1.88;1.13;;;;;;;9.36;100.00;96938.78;4147860;28;20224;-51
2022/09/27 04:52:28;;;;;;;1.25;0.85;;;;;;;9.44;100.00;96942.84;4151622;28;20201;-50
2022/09/27 04:54:29;;;;;;;2.15;0.95;;;;;;;9.42;100.00;96947.78;4162851;28;20288;-49
2022/09/27 04:56:31;;;;;;;1.00;0.93;;;;;;;9.39;100.00;96940.13;4164218;28;20200;-50
2022/09/27 04:58:33;;;;;;;1.00;0.90;;;;;;;9.30;100.00;96941.81;4150508;28;20727;-50
2022/09/27 05:00:35;;;;;;;1.70;1.20;;;;;;;9.33;100.00;96944.81;4166892;28;20238;-50
2022/09/27 05:02:37;;;;;;;1.98;1.10;;;;;;;9.32;100.00;96945.06;4155446;28;20296;-49
2022/09/27 05:04:38;;;;;;;1.98;1.30;;;;;;;9.34;100.00;96948.38;4148348;28;20208;-51
2022/09/27 05:06:40;;;;;;;1.27;1.17;;;;;;;9.29;100.00;96951.13;4150967;28;20281;-50
2022/09/27 05:08:44;;;;;;;2.38;1.13;;;;;;;9.35;100.00;96956.25;4151290;28;20215;-50
2022/09/27 05:10:46;;;;;;;1.50;1.33;;;;;;;9.41;100.00;96948.88;4163491;28;20922;-51
2022/09/27 05:12:48;;;;;;;2.03;1.15;;;;;;;9.19;100.00;96962.06;4164741;28;20228;-51
2022/09/27 05:14:50;;;;;;;1.48;1.23;;;;;;;9.29;100.00;96962.03;4165471;28;20311;-49
2022/09/27 05:16:52;;;;;;;1.58;1.40;;;;;;;9.32;100.00;96972.38;4151309;28;20217;-49
2022/09/27 05:18:55;;;;;;;1.98;1.80;;;;;;;9.25;100.00;96977.31;4151366;28;20224;-50
2022/09/27 05:20:57;;;;;;;1.60;1.40;;;;;;;9.23;100.00;96979.53;4152083;28;20240;-51
2022/09/27 05:23:00;;;;;;;1.63;0.85;;;;;;;9.29;100.00;96975.69;4150168;28;20231;-50
2022/09/27 05:25:01;;;;;;;2.78;1.45;;;;;;;9.22;100.00;96978.69;4154632;28;20205;-52
2022/09/27 05:27:07;;;;;;;2.65;1.50;;;;;;;9.21;100.00;96981.72;4151721;28;20207;-52
2022/09/27 05:29:09;;;;;;;2.45;1.92;;;;;;;9.12;100.00;96988.81;4158682;28;20300;-50
2022/09/27 05:31:13;;;;;;;2.80;1.73;;;;;;;9.11;100.00;96988.03;4157338;28;20633;-50
2022/09/27 05:33:15;;;;;;;1.60;1.50;;;;;;;9.11;100.00;96984.47;4164917;28;20289;-49
2022/09/27 05:35:18;;;;;;;2.20;1.42;;;;;;;9.19;100.00;96989.34;4150223;28;20216;-49
2022/09/27 05:37:20;;;;;;;4.05;1.30;;;;;;;9.14;100.00;96997.56;4154129;28;20279;-49
2022/09/27 05:39:22;;;;;;;1.65;1.23;;;;;;;9.18;100.00;97001.34;4151273;28;20224;-50
2022/09/27 05:41:24;;;;;;;3.33;1.50;;;;;;;9.13;100.00;97004.09;4153005;28;20312;-49
2022/09/27 05:43:27;;;;;;;2.25;1.20;;;;;;;9.11;100.00;96998.09;4152631;28;20279;-49
2022/09/27 05:45:29;;;;;;;3.35;1.35;;;;;;;9.12;100.00;97013.38;4155411;28;21706;-49
2022/09/27 05:47:31;;;;;;;1.75;1.42;;;;;;;9.18;100.00;97004.91;4160554;28;20694;-49
2022/09/27 05:49:33;;;;;;;1.30;1.20;;;;;;;9.09;100.00;97011.22;4154587;28;20647;-49
2022/09/27 05:51:35;;;;;;;4.35;1.20;;;;;;;9.11;100.00;97009.84;4152774;28;20212;-49
2022/09/27 05:53:37;;;;;;;2.08;1.30;;;;;;;9.13;100.00;97017.75;4153039;28;20205;-49
2022/09/27 05:55:39;;;;;;;2.45;1.75;;;;;;;9.14;100.00;97013.94;4136136;28;20284;-48
2022/09/27 05:57:41;;;;;;;1.52;1.42;;;;;;;9.19;100.00;97022.09;4151290;28;20602;-49
2022/09/27 05:59:42;;;;;;;1.23;1.13;;;;;;;9.08;100.00;97015.84;4151199;28;20224;-51
2022/09/27 06:01:44;;;;;;;1.52;1.20;;;;;;;9.01;100.00;97026.22;4168248;28;20205;-48
2022/09/27 06:03:46;;;;;;;2.65;1.58;;;;;;;9.19;100.00;97022.09;4168171;28;20594;-51
2022/09/27 06:05:48;;;;;;;1.00;1.00;;;;;;;9.06;100.00;97028.97;4134868;28;20231;-50
2022/09/27 06:08:00;;;;;;;1.60;1.10;;;;;;;9.11;100.00;97017.22;4156786;28;20870;-52
2022/09/27 06:10:02;;;;;;;1.52;1.23;;;;;;;9.19;100.00;97024.81;4145119;28;20625;-49
2022/09/27 06:12:04;;;;;;;1.27;1.17;;;;;;;9.12;100.00;97022.41;4142447;28;20343;-50
2022/09/27 06:14:06;;;;;;;1.30;1.20;;;;;;;9.12;100.00;97024.28;4164536;28;20204;-50
2022/09/27 06:16:10;;;;;;;0.95;0.93;;;;;;;9.18;100.00;97028.66;4144159;28;20204;-50
2022/09/27 06:18:15;;;;;;;2.38;1.27;;;;;;;9.22;100.00;97027.81;4162102;28;20238;-49
2022/09/27 06:20:17;;;;;;;6.47;1.50;;;;;;;9.18;100.00;97021.28;4142438;28;20270;-50
2022/09/27 06:22:18;;;;;;;1.25;1.20;;;;;;;9.38;100.00;97020.38;4144007;28;20201;-51
2022/09/27 06:24:20;;;;;;;1.65;1.55;;;;;;;9.59;100.00;97033.69;4149149;28;20232;-50
2022/09/27 06:26:23;;;;;;;2.03;1.08;;;;;;;9.57;100.00;97029.59;4149229;28;20208;-51
2022/09/27 06:28:25;;;;;;;2.05;1.70;;;;;;;9.62;100.00;97035.03;4162439;28;20205;-50
2022/09/27 06:30:27;;;;;;;1.20;1.10;;;;;;;9.70;100.00;97029.00;4148531;28;22391;-49
2022/09/27 06:32:29;;;;;;;1.45;1.35;;;;;;;9.59;100.00;97027.41;4149476;28;20263;-51
2022/09/27 06:34:31;;;;;;;2.50;1.33;;;;;;;9.65;100.00;97037.19;4166219;28;20201;-50
2022/09/27 06:36:33;;;;;;;1.38;1.10;;;;;;;9.61;100.00;97038.88;4161998;28;20326;-50
2022/09/27 06:38:34;;;;;;;2.00;1.33;;;;;;;9.73;100.00;97048.38;4150061;28;20209;-50
2022/09/27 06:40:36;;;;;;;1.70;1.40;;;;;;;9.61;100.00;97047.06;4148304;28;20229;-50
2022/09/27 06:42:39;;;;;;;1.80;1.63;;;;;;;9.49;100.00;97044.63;4146903;28;20209;-51
2022/09/27 06:44:40;;;;;;;1.50;1.40;;;;;;;9.43;100.00;97048.47;4153445;28;20209;-50
2022/09/27 06:46:42;;;;;;;1.70;1.60;;;;;;;9.52;100.00;97048.72;4164888;28;20578;-50
2022/09/27 06:48:44;;;;;;;1.40;1.30;;;;;;;9.53;100.00;97043.00;4161063;28;20206;-51
2022/09/27 06:50:47;;;;;;;3.08;1.80;;;;;;;9.59;100.00;97049.25;4159226;28;20271;-49
2022/09/27 06:52:49;;;;;;;3.63;1.52;;;;;;;9.61;100.00;97047.88;4171182;28;20244;-49
2022/09/27 06:54:51;;;;;;;1.73;1.50;;;;;;;9.58;100.00;97053.06;4156625;28;20204;-50
2022/09/27 06:56:53;;;;;;;1.67;1.13;;;;;;;9.69;100.00;97054.66;4156324;28;20220;-50
2022/09/27 07:01:28;;;;;;;2.08;1.00;;;;;;;10.73;100.00;97055.09;4154396;28;20228;-51
2022/09/27 07:03:36;;;;;;;4.25;1.48;;;;;;;10.90;100.00;97062.59;4159344;28;20231;-49
2022/09/27 07:05:41;;;;;;;1.95;1.10;;;;;;;11.43;100.00;97071.66;4160200;28;20562;-51
2022/09/27 07:07:43;;;;;;;2.30;1.40;;;;;;;11.63;99.51;97075.00;4168517;28;20292;-50
2022/09/27 07:09:45;;;;;;;1.67;1.45;;;;;;;11.48;95.59;97072.41;4152469;28;20209;-49
2022/09/27 07:11:47;;;;;;;2.90;0.95;;;;;;;11.46;97.07;97079.28;4139332;28;20213;-50
2022/09/27 07:13:49;;;;;;;5.55;1.50;;;;;;;11.34;97.62;97079.69;4151984;28;20240;-50
2022/09/27 07:15:51;;;;;;;1.95;1.10;;;;;;;11.25;97.14;97092.38;4153726;28;21210;-50
2022/09/27 07:17:59;;;;;;;0.90;0.90;;;;;;;10.80;96.49;97089.25;4154313;28;20304;-49
2022/09/27 07:20:01;;;;;;;1.70;1.08;;;;;;;10.70;99.19;97093.97;4155989;28;20239;-50
2022/09/27 07:22:03;;;;;;;4.22;1.70;;;;;;;10.55;100.00;97097.63;4139627;28;20560;-51
2022/09/27 07:24:05;;;;;;;2.38;1.00;;;;;;;10.44;100.00;97089.78;4150134;28;20212;-50
2022/09/27 07:26:07;;;;;;;1.25;1.15;;;;;;;10.38;100.00;97096.38;4147740;28;20205;-55
2022/09/27 07:28:13;;;;;;;1.83;1.38;;;;;;;10.22;100.00;97100.31;4167931;28;20212;-51
2022/09/27 07:30:20;;;;;;;1.33;1.20;;;;;;;10.24;100.00;97103.59;4153550;28;20235;-50
2022/09/27 07:32:22;;;;;;;3.00;1.45;;;;;;;10.34;100.00;97098.88;4158145;28;20240;-50
2022/09/27 07:34:24;;;;;;;1.23;0.90;;;;;;;10.20;100.00;97105.25;4156719;28;20208;-49
2022/09/27 07:36:25;;;;;;;1.83;1.48;;;;;;;9.99;100.00;97109.16;4158711;28;20218;-50
2022/09/27 07:38:27;;;;;;;1.48;1.33;;;;;;;10.09;100.00;97103.69;4149118;28;20237;-49
2022/09/27 07:40:29;;;;;;;2.53;1.55;;;;;;;9.91;100.00;97101.53;4165020;28;20918;-50
2022/09/27 07:42:30;;;;;;;2.25;1.50;;;;;;;9.90;100.00;97110.84;4153882;28;20216;-50
2022/09/27 07:44:32;;;;;;;1.85;1.50;;;;;;;9.86;100.00;97101.56;4138922;28;20255;-50
2022/09/27 07:46:34;;;;;;;2.13;1.92;;;;;;;9.92;100.00;97111.38;4151728;28;20212;-50
2022/09/27 07:48:39;;;;;;;3.50;1.88;;;;;;;9.86;100.00;97115.22;4152909;28;20216;-52
2022/09/27 07:50:42;;;;;;;5.22;1.95;;;;;;;9.92;100.00;97105.91;4155382;28;20253;-52
2022/09/27 07:52:45;;;;;;;2.45;1.85;;;;;;;9.89;100.00;97101.00;4171705;28;20205;-52
2022/09/27 07:54:50;;;;;;;3.55;3.25;;;;;;;9.77;100.00;97109.53;4157197;28;20209;-52
2022/09/27 07:56:54;;;;;;;2.47;1.80;;;;;;;9.86;100.00;97112.47;4172636;28;20200;-52
2022/09/27 07:58:56;;;;;;;2.45;1.80;;;;;;;9.79;100.00;97109.25;4156780;28;20294;-52
2022/09/27 08:00:58;;;;;;;2.67;2.03;;;;;;;9.80;100.00;97114.44;4142411;28;20224;-51
2022/09/27 08:03:05;;;;;;;1.92;1.83;;;;;;;9.93;100.00;97110.25;4153108;28;20282;-52
2022/09/27 08:05:08;;;;;;;3.47;1.90;;;;;;;9.88;100.00;97113.03;4154504;28;20223;-54
2022/09/27 08:07:09;;;;;;;5.35;1.63;;;;;;;9.89;100.00;97109.22;4155829;28;20248;-51
2022/09/27 08:09:15;;;;;;;3.40;1.90;;;;;;;9.92;100.00;97119.56;4153267;28;20251;-52
2022/09/27 08:11:23;;;;;;;1.80;1.60;;;;;;;10.12;100.00;97119.50;4151406;28;20224;-54
2022/09/27 08:13:24;;;;;;;2.97;1.58;;;;;;;10.07;100.00;97123.09;4153198;28;20884;-54
2022/09/27 08:15:27;;;;;;;2.08;1.85;;;;;;;10.25;100.00;97124.34;4151616;28;20205;-52
2022/09/27 08:17:30;;;;;;;2.78;1.60;;;;;;;10.41;100.00;97113.03;4155464;28;20296;-52
2022/09/27 08:19:32;;;;;;;3.08;1.77;;;;;;;10.50;100.00;97121.47;4161244;28;20204;-52
2022/09/27 08:21:34;;;;;;;2.33;1.40;;;;;;;10.22;100.00;97124.94;4154328;28;20216;-54
2022/09/27 08:23:36;;;;;;;2.03;1.88;;;;;;;10.24;100.00;97123.56;4148673;28;20232;-52
2022/09/27 08:25:39;;;;;;;2.47;1.92;;;;;;;10.18;100.00;97124.69;4162061;28;20226;-53
2022/09/27 08:27:41;;;;;;;2.70;1.90;;;;;;;10.20;100.00;97124.38;4154476;28;20204;-52
2022/09/27 08:29:43;;;;;;;2.88;1.80;;;;;;;10.24;100.00;97125.47;4165471;28;20586;-52
2022/09/27 08:31:44;;;;;;;2.63;2.10;;;;;;;10.21;100.00;97128.75;4156832;28;20213;-51
2022/09/27 08:33:50;;;;;;;1.95;1.45;;;;;;;10.28;100.00;97132.00;4154951;28;20296;-53
2022/09/27 08:35:55;;;;;;;4.05;1.98;;;;;;;10.22;100.00;97130.41;4153935;28;20216;-53
2022/09/27 08:37:58;;;;;;;3.88;1.85;;;;;;;9.99;100.00;97136.47;4155711;28;20243;-50
2022/09/27 08:40:01;;;;;;;1.80;1.58;;;;;;;10.00;100.00;97140.84;4157204;28;20258;-51
2022/09/27 08:42:35;;;;;;;1.92;1.80;;;;;;;9.92;100.00;97141.41;4158571;28;20213;-52
2022/09/27 08:44:55;;;;;;;2.30;1.65;;;;;;;9.83;100.00;97138.44;4144518;28;20578;-51
2022/09/27 08:47:28;;;;;;;2.20;1.80;;;;;;;9.95;100.00;97143.63;4154086;28;20224;-51
2022/09/27 08:49:40;;;;;;;2.20;2.00;;;;;;;9.98;100.00;97141.13;4153869;28;20208;-51
2022/09/27 08:51:44;;;;;;;3.45;2.28;;;;;;;10.03;100.00;97140.28;4155090;28;20193;-52
2022/09/27 08:54:14;;;;;;;3.80;2.00;;;;;;;10.02;100.00;97146.84;4155903;28;20201;-51
2022/09/27 08:56:20;;;;;;;2.67;2.35;;;;;;;10.05;100.00;97140.84;4151813;28;20216;-51
2022/09/27 08:58:52;;;;;;;3.13;2.83;;;;;;;10.13;100.00;97143.81;4153748;28;20663;-53
2022/09/27 09:00:56;;;;;;;3.90;2.75;;;;;;;10.13;100.00;97148.47;4122819;28;20300;-51
2022/09/27 09:03:00;;;;;;;3.90;2.47;;;;;;;10.08;100.00;97138.38;4158249;28;20231;-51
2022/09/27 09:05:07;;;;;;;2.72;2.10;;;;;;;10.15;100.00;97141.63;4158727;28;20233;-51
2022/09/27 09:07:53;;;;;;;3.25;2.50;;;;;;;10.28;100.00;97145.69;4150845;28;20211;-51
2022/09/27 09:12:45;;;;;;;2.83;2.30;;;;;;;10.52;100.00;97141.13;4132317;28;20349;-51
2022/09/27 09:12:59;;;;;;;2.08;1.75;;;;;;;10.56;100.00;97144.97;4150456;28;20300;-51
2022/09/27 09:15:20;;;;;;;3.08;1.80;;;;;;;10.70;100.00;97151.44;4155882;28;20704;-51
2022/09/27 09:17:44;;;;;;;1.80;1.70;;;;;;;10.49;100.00;97147.19;4156273;28;20214;-51
2022/09/27 09:20:08;;;;;;;1.98;1.80;;;;;;;10.48;100.00;97142.81;4156689;28;20204;-51
2022/09/27 09:22:27;;;;;;;2.50;1.83;;;;;;;10.44;100.00;97139.00;4154462;28;20251;-51
2022/09/27 09:24:51;;;;;;;1.85;1.75;;;;;;;10.34;100.00;97155.50;4145531;28;20679;-51
2022/09/27 09:26:58;;;;;;;6.07;1.90;;;;;;;10.46;100.00;97147.75;4152560;28;20228;-51
2022/09/27 09:29:05;;;;;;;2.92;1.80;;;;;;;10.23;100.00;97137.50;4140016;28;20275;-55
2022/09/27 09:31:42;;;;;;;3.75;1.85;;;;;;;10.27;100.00;97144.03;4148782;28;20259;-51
2022/09/27 09:33:58;;;;;;;1.65;1.52;;;;;;;10.34;100.00;97144.56;4135855;28;20621;-51
2022/09/27 09:36:22;;;;;;;1.85;1.70;;;;;;;10.29;100.00;97145.38;4152836;28;20661;-51
2022/09/27 09:38:36;;;;;;;2.75;1.98;;;;;;;10.39;100.00;97139.03;4153295;28;20207;-51
2022/09/27 09:40:46;;;;;;;2.58;1.80;;;;;;;10.45;100.00;97136.00;4161858;28;20670;-51
2022/09/27 09:42:50;;;;;;;2.30;2.10;;;;;;;10.51;100.00;97137.59;4147653;28;20205;-50
2022/09/27 09:44:58;;;;;;;4.88;2.20;;;;;;;10.50;100.00;97148.81;4164035;28;20219;-51
2022/09/27 09:47:01;;;;;;;3.53;2.20;;;;;;;10.53;100.00;97137.31;4162916;28;20701;-52
2022/09/27 09:49:27;;;;;;;6.30;2.58;;;;;;;10.38;99.85;97140.97;4134800;28;20240;-51
2022/09/27 09:51:41;;;;;;;2.50;2.35;;;;;;;10.40;100.00;97133.28;4155827;28;20671;-52
2022/09/27 09:53:57;;;;;;;3.22;2.80;;;;;;;10.49;100.00;97141.72;4152683;28;20211;-53
2022/09/27 09:56:05;;;;;;;3.97;3.67;;;;;;;10.57;100.00;97144.69;4148315;28;20232;-52
2022/09/27 09:58:27;;;;;;;6.95;3.50;;;;;;;10.52;100.00;97146.59;4148836;28;20266;-47
2022/09/27 10:00:29;;;;;;;4.20;3.90;;;;;;;10.48;100.00;97140.09;4151538;28;20229;-48